Time;durP1;ratioP1;P1;durP2;ratioP2;P2;SDS_P1;SDS_P2;PMS_P1;PMS_P2;Temp;Humidity;BMP_temperature;BMP_pressure;BME280_temperature;BME280_humidity;BME280_pressure;Samples;Min_cycle;Max_cycle;Signal;HPM_P1;HPM_P2
2024/01/23 00:01:35;;;;;;;16.10;3.03;;;6.90;99.90;;;;;;5073059;28;21239;-51
2024/01/23 00:04:01;;;;;;;20.98;3.33;;;6.90;99.90;;;;;;5072909;28;20048;-50
2024/01/23 00:06:26;;;;;;;16.45;2.50;;;6.90;99.90;;;;;;5073001;28;20403;-51
2024/01/23 00:08:53;;;;;;;15.63;2.85;;;6.90;99.90;;;;;;5072670;28;20028;-55
2024/01/23 00:11:19;;;;;;;19.52;3.08;;;6.90;99.90;;;;;;5069205;28;20663;-54
2024/01/23 00:13:48;;;;;;;18.75;2.50;;;6.90;99.90;;;;;;5072663;28;20037;-53
2024/01/23 00:16:14;;;;;;;22.30;3.05;;;7.00;99.90;;;;;;5070976;28;20056;-52
2024/01/23 00:18:40;;;;;;;20.30;3.25;;;7.30;99.90;;;;;;5072473;28;20133;-54
2024/01/23 00:21:06;;;;;;;14.15;2.55;;;6.90;99.90;;;;;;5071580;28;20392;-53
2024/01/23 00:23:31;;;;;;;19.90;3.10;;;6.90;99.90;;;;;;5072542;28;20112;-55
2024/01/23 00:25:57;;;;;;;18.52;2.65;;;6.90;99.90;;;;;;5072703;28;20119;-54
2024/01/23 00:28:23;;;;;;;14.15;3.15;;;6.80;99.90;;;;;;5072905;28;20039;-53
2024/01/23 00:30:48;;;;;;;13.60;2.60;;;6.80;99.90;;;;;;5072549;28;20552;-55
2024/01/23 00:33:14;;;;;;;15.27;2.58;;;6.80;99.90;;;;;;5072765;28;20094;-53
2024/01/23 00:35:40;;;;;;;25.05;2.70;;;6.80;99.90;;;;;;5072366;28;20506;-52
2024/01/23 00:38:07;;;;;;;17.05;2.65;;;6.80;99.90;;;;;;5072477;28;20048;-54
2024/01/23 00:40:33;;;;;;;17.85;2.60;;;7.00;99.90;;;;;;5071679;28;20045;-53
2024/01/23 00:42:59;;;;;;;23.30;3.15;;;6.80;99.90;;;;;;5072269;28;20110;-55
2024/01/23 00:45:25;;;;;;;18.20;2.45;;;6.80;99.90;;;;;;5071713;28;20032;-54
2024/01/23 00:47:50;;;;;;;15.65;2.88;;;6.90;99.90;;;;;;5072403;28;20028;-54
2024/01/23 00:50:17;;;;;;;15.88;2.95;;;7.10;99.90;;;;;;5072282;28;20066;-54
2024/01/23 00:52:43;;;;;;;16.80;2.65;;;6.90;99.90;;;;;;5072208;28;20105;-55
2024/01/23 00:55:09;;;;;;;18.42;3.38;;;6.80;99.90;;;;;;5069673;28;20038;-56
2024/01/23 00:57:35;;;;;;;16.35;2.85;;;6.80;99.90;;;;;;5070864;28;20673;-54
2024/01/23 01:00:05;;;;;;;21.77;3.30;;;6.80;99.90;;;;;;5071784;28;20514;-52
2024/01/23 01:02:31;;;;;;;22.65;3.10;;;6.70;99.90;;;;;;5071847;28;20048;-52
2024/01/23 01:04:57;;;;;;;22.60;3.35;;;6.80;99.90;;;;;;5071571;28;20040;-55
2024/01/23 01:07:23;;;;;;;14.70;2.72;;;6.80;99.90;;;;;;5071795;28;20086;-56
2024/01/23 01:09:48;;;;;;;21.80;3.08;;;6.80;99.90;;;;;;5071660;28;20040;-54
2024/01/23 01:12:14;;;;;;;18.92;2.90;;;6.80;99.90;;;;;;5071907;28;20062;-53
2024/01/23 01:14:40;;;;;;;25.80;3.30;;;6.80;99.90;;;;;;5071584;28;20045;-52
2024/01/23 01:17:05;;;;;;;14.73;3.67;;;6.80;99.90;;;;;;5071588;28;20064;-53
2024/01/23 01:19:32;;;;;;;21.00;3.10;;;6.70;99.90;;;;;;5071140;28;20496;-51
2024/01/23 01:21:58;;;;;;;21.25;3.85;;;6.70;99.90;;;;;;5071507;28;20514;-55
2024/01/23 01:24:23;;;;;;;24.92;3.35;;;6.70;99.90;;;;;;5071431;28;20049;-53
2024/01/23 01:26:49;;;;;;;19.20;2.90;;;6.70;99.90;;;;;;5071781;28;20036;-54
2024/01/23 01:29:15;;;;;;;20.85;3.05;;;6.70;99.90;;;;;;5071589;28;20119;-53
2024/01/23 01:31:40;;;;;;;16.65;5.00;;;6.70;99.90;;;;;;5071208;28;20492;-52
2024/01/23 01:34:06;;;;;;;21.92;3.20;;;6.70;99.90;;;;;;5070543;28;20043;-54
2024/01/23 01:36:32;;;;;;;22.52;3.50;;;6.80;99.90;;;;;;5071079;28;20527;-55
2024/01/23 01:39:00;;;;;;;23.70;4.38;;;6.80;99.90;;;;;;5069474;28;20086;-55
2024/01/23 01:41:26;;;;;;;19.50;3.47;;;6.70;99.90;;;;;;5068618;28;20047;-54
2024/01/23 01:43:51;;;;;;;15.50;3.28;;;6.60;99.90;;;;;;5070804;28;20041;-52
2024/01/23 01:46:26;;;;;;;18.60;3.17;;;6.70;99.90;;;;;;5052832;28;20052;-54
2024/01/23 01:48:53;;;;;;;21.70;3.60;;;6.60;99.90;;;;;;5071243;28;20032;-54
2024/01/23 01:51:24;;;;;;;21.63;3.60;;;6.60;99.90;;;;;;5071006;28;20110;-55
2024/01/23 01:53:50;;;;;;;17.67;3.10;;;6.60;99.90;;;;;;5071155;28;20414;-51
2024/01/23 01:56:22;;;;;;;22.00;3.50;;;6.60;99.90;;;;;;5071157;28;20048;-54
2024/01/23 01:58:48;;;;;;;19.98;3.05;;;6.60;99.90;;;;;;5070795;28;20442;-55
2024/01/23 02:01:14;;;;;;;14.93;2.88;;;6.60;99.90;;;;;;5070947;28;20128;-53
2024/01/23 02:03:40;;;;;;;15.13;3.05;;;6.50;99.90;;;;;;5070475;28;20458;-54
2024/01/23 02:06:06;;;;;;;19.10;3.03;;;6.50;99.90;;;;;;5070843;28;20048;-55
2024/01/23 02:08:35;;;;;;;21.70;3.25;;;6.50;99.90;;;;;;5071091;28;20032;-54
2024/01/23 02:11:02;;;;;;;23.27;3.47;;;6.50;99.90;;;;;;5070672;28;20486;-55
2024/01/23 02:13:28;;;;;;;24.98;3.33;;;6.50;99.90;;;;;;5070816;28;20119;-55
2024/01/23 02:15:54;;;;;;;17.90;2.78;;;6.60;99.90;;;;;;5070569;28;20123;-53
2024/01/23 02:18:19;;;;;;;11.30;2.92;;;6.60;99.90;;;;;;5070684;28;20095;-53
2024/01/23 02:20:45;;;;;;;20.83;3.08;;;6.50;99.90;;;;;;5070975;28;20044;-52
2024/01/23 02:23:13;;;;;;;17.35;3.25;;;6.60;99.90;;;;;;5070373;28;20082;-54
2024/01/23 02:25:42;;;;;;;15.13;2.83;;;6.50;99.90;;;;;;5068459;28;20051;-51
2024/01/23 02:28:12;;;;;;;24.17;3.67;;;6.50;99.90;;;;;;5069560;28;20040;-54
2024/01/23 02:30:38;;;;;;;17.95;3.60;;;6.60;99.90;;;;;;5070539;28;20115;-52
2024/01/23 02:33:05;;;;;;;21.45;3.42;;;6.50;99.90;;;;;;5070260;28;20120;-55
2024/01/23 02:35:31;;;;;;;18.35;3.13;;;6.50;99.90;;;;;;5070964;28;20045;-55
2024/01/23 02:37:57;;;;;;;21.13;2.95;;;6.50;99.90;;;;;;5070570;28;20043;-54
2024/01/23 02:40:24;;;;;;;20.75;3.13;;;6.60;99.90;;;;;;5070409;28;20044;-54
2024/01/23 02:42:50;;;;;;;22.40;3.00;;;6.50;99.90;;;;;;5070364;28;20040;-53
2024/01/23 02:45:15;;;;;;;20.70;2.85;;;6.40;99.90;;;;;;5073837;28;20051;-55
2024/01/23 02:47:41;;;;;;;21.38;2.75;;;6.40;99.90;;;;;;5074257;28;20131;-53
2024/01/23 02:50:08;;;;;;;21.65;3.40;;;6.40;99.90;;;;;;5074234;28;20033;-53
2024/01/23 02:52:33;;;;;;;20.10;3.00;;;6.40;99.90;;;;;;5074583;28;20032;-54
2024/01/23 02:54:59;;;;;;;21.23;3.28;;;6.70;99.90;;;;;;5074487;28;20085;-52
2024/01/23 02:57:26;;;;;;;19.38;3.22;;;6.30;99.90;;;;;;5073549;28;20125;-56
2024/01/23 02:59:55;;;;;;;17.90;3.47;;;6.30;99.90;;;;;;5074352;28;20507;-54
2024/01/23 03:02:24;;;;;;;29.15;3.60;;;6.30;99.90;;;;;;5074063;28;20424;-52
2024/01/23 03:04:50;;;;;;;16.42;3.95;;;6.30;99.90;;;;;;5073926;28;20044;-55
2024/01/23 03:07:17;;;;;;;17.00;2.67;;;6.30;99.90;;;;;;5072843;28;20040;-53
2024/01/23 03:09:43;;;;;;;21.58;4.38;;;6.40;99.90;;;;;;5073370;28;20044;-54
2024/01/23 03:12:22;;;;;;;25.33;3.47;;;6.30;99.90;;;;;;5071137;28;20027;-53
2024/01/23 03:14:49;;;;;;;18.63;2.75;;;6.30;99.90;;;;;;5071985;28;20044;-52
2024/01/23 03:17:16;;;;;;;21.70;3.25;;;6.30;99.90;;;;;;5073184;28;20044;-54
2024/01/23 03:19:42;;;;;;;17.85;3.13;;;6.40;99.90;;;;;;5072843;28;20051;-52
2024/01/23 03:22:08;;;;;;;18.08;3.28;;;6.40;99.90;;;;;;5073638;28;20112;-56
2024/01/23 03:24:37;;;;;;;28.40;3.92;;;6.60;99.90;;;;;;5073555;28;20082;-55
2024/01/23 03:27:06;;;;;;;16.48;2.88;;;6.60;99.90;;;;;;5073723;28;20245;-54
2024/01/23 03:29:58;;;;;;;18.83;3.15;;;6.60;99.90;;;;;;5073720;28;20037;-53
2024/01/23 03:32:24;;;;;;;25.00;4.03;;;6.60;99.90;;;;;;5071543;28;20114;-55
2024/01/23 03:34:50;;;;;;;25.10;4.45;;;6.60;99.90;;;;;;5073617;28;20544;-53
2024/01/23 03:37:16;;;;;;;13.32;3.15;;;6.70;99.90;;;;;;5073314;28;20048;-53
2024/01/23 03:39:41;;;;;;;22.88;3.33;;;6.60;99.90;;;;;;5072969;28;20036;-54
2024/01/23 03:42:07;;;;;;;29.38;3.65;;;6.60;99.90;;;;;;5073481;28;20032;-55
2024/01/23 03:44:33;;;;;;;24.00;4.43;;;6.70;99.90;;;;;;5073509;28;20055;-54
2024/01/23 03:46:58;;;;;;;28.00;3.47;;;6.70;99.90;;;;;;5073507;28;20035;-56
2024/01/23 03:49:24;;;;;;;24.50;3.53;;;6.60;99.90;;;;;;5072988;28;20036;-53
2024/01/23 03:51:51;;;;;;;21.63;3.05;;;6.70;99.90;;;;;;5073121;28;20458;-55
2024/01/23 03:54:17;;;;;;;22.70;3.72;;;6.60;99.90;;;;;;5072948;28;20097;-55
2024/01/23 03:56:43;;;;;;;29.08;4.03;;;6.70;99.90;;;;;;5069885;28;20072;-54
2024/01/23 03:59:09;;;;;;;23.70;3.38;;;6.70;99.90;;;;;;5072043;28;20037;-55
2024/01/23 04:01:35;;;;;;;21.92;3.13;;;7.00;99.90;;;;;;5073093;28;20464;-55
2024/01/23 04:04:00;;;;;;;25.58;4.15;;;6.70;99.90;;;;;;5072814;28;20059;-52
2024/01/23 04:06:26;;;;;;;18.33;3.17;;;6.70;99.90;;;;;;5072873;28;20036;-50
2024/01/23 04:08:52;;;;;;;30.50;4.40;;;6.70;99.90;;;;;;5072318;28;20089;-54
2024/01/23 04:11:18;;;;;;;18.17;3.10;;;6.70;99.90;;;;;;5070734;28;20040;-54
2024/01/23 04:13:43;;;;;;;18.45;2.85;;;6.70;99.90;;;;;;5072961;28;20033;-51
2024/01/23 04:16:09;;;;;;;25.70;4.72;;;6.70;99.90;;;;;;5072658;28;20082;-50
2024/01/23 04:18:35;;;;;;;23.33;4.55;;;6.90;99.90;;;;;;5071875;28;20076;-54
2024/01/23 04:21:01;;;;;;;16.42;3.10;;;6.70;99.90;;;;;;5072357;28;20601;-54
2024/01/23 04:23:28;;;;;;;21.52;3.92;;;6.70;99.90;;;;;;5072478;28;20033;-52
2024/01/23 04:25:53;;;;;;;21.38;3.22;;;6.70;99.90;;;;;;5072347;28;20496;-52
2024/01/23 04:28:20;;;;;;;20.42;3.75;;;6.70;99.90;;;;;;5072597;28;20041;-55
2024/01/23 04:30:46;;;;;;;18.17;3.33;;;6.70;99.90;;;;;;5072383;28;20384;-54
2024/01/23 04:33:12;;;;;;;23.73;4.25;;;6.70;99.90;;;;;;5072557;28;20040;-52
2024/01/23 04:35:38;;;;;;;33.47;4.63;;;6.90;99.90;;;;;;5072269;28;20484;-55
2024/01/23 04:38:03;;;;;;;24.67;3.75;;;6.80;99.90;;;;;;5072006;28;20040;-52
2024/01/23 04:40:29;;;;;;;27.35;3.63;;;6.90;99.90;;;;;;5069817;28;20119;-52
2024/01/23 04:42:55;;;;;;;21.92;3.75;;;6.70;99.90;;;;;;5071356;28;20484;-51
2024/01/23 04:45:20;;;;;;;19.75;3.28;;;7.10;99.90;;;;;;5072004;28;20047;-56
2024/01/23 04:47:46;;;;;;;26.08;3.70;;;6.90;99.90;;;;;;5072198;28;20036;-53
2024/01/23 04:50:11;;;;;;;23.00;3.75;;;6.80;99.90;;;;;;5072197;28;20119;-55
2024/01/23 04:52:37;;;;;;;23.33;4.03;;;6.70;99.90;;;;;;5071829;28;20040;-52
2024/01/23 04:55:04;;;;;;;24.98;4.32;;;6.80;99.90;;;;;;5071973;28;20543;-54
2024/01/23 04:57:33;;;;;;;23.65;3.47;;;6.80;99.90;;;;;;5071316;28;20484;-54
2024/01/23 04:59:59;;;;;;;23.63;3.80;;;6.90;99.90;;;;;;5071966;28;20063;-55
2024/01/23 05:02:26;;;;;;;23.98;3.53;;;6.70;99.90;;;;;;5071414;28;20036;-52
2024/01/23 05:04:52;;;;;;;24.45;4.47;;;6.80;99.90;;;;;;5071824;28;20102;-52
2024/01/23 05:07:18;;;;;;;28.55;4.95;;;6.70;99.90;;;;;;5071004;28;20476;-55
2024/01/23 05:09:44;;;;;;;25.60;4.28;;;6.70;99.90;;;;;;5071848;28;20044;-54
2024/01/23 05:12:10;;;;;;;28.10;3.65;;;6.80;99.90;;;;;;5071863;28;20036;-55
2024/01/23 05:14:36;;;;;;;25.50;4.13;;;6.70;99.90;;;;;;5069871;28;20036;-55
2024/01/23 05:17:01;;;;;;;27.30;4.15;;;6.80;99.90;;;;;;5070937;28;20044;-56
2024/01/23 05:19:28;;;;;;;28.05;4.28;;;6.70;99.90;;;;;;5071515;28;20040;-54
2024/01/23 05:21:53;;;;;;;29.42;4.20;;;6.80;99.90;;;;;;5070927;28;20039;-54
2024/01/23 05:24:19;;;;;;;28.70;4.68;;;6.70;99.90;;;;;;5071468;28;20115;-53
2024/01/23 05:26:45;;;;;;;26.15;4.38;;;6.70;99.90;;;;;;5067496;28;20032;-56
2024/01/23 05:29:10;;;;;;;29.40;4.22;;;6.70;99.90;;;;;;5071152;28;20058;-54
2024/01/23 05:31:36;;;;;;;27.20;3.97;;;6.80;99.90;;;;;;5070794;28;20101;-56
2024/01/23 05:34:02;;;;;;;24.92;4.07;;;6.70;99.90;;;;;;5070842;28;20040;-54
2024/01/23 05:36:27;;;;;;;24.65;4.20;;;6.70;99.90;;;;;;5069569;28;20036;-54
2024/01/23 05:38:53;;;;;;;26.02;4.13;;;7.10;99.90;;;;;;5069343;28;20063;-54
2024/01/23 05:41:19;;;;;;;26.13;3.95;;;6.80;99.90;;;;;;5070646;28;20128;-54
2024/01/23 05:43:44;;;;;;;28.02;4.75;;;6.80;99.90;;;;;;5070790;28;20029;-54
2024/01/23 05:46:10;;;;;;;31.42;4.40;;;6.80;99.90;;;;;;5070726;28;20119;-55
2024/01/23 05:48:36;;;;;;;30.58;3.97;;;6.80;99.90;;;;;;5069737;28;20041;-52
2024/01/23 05:51:01;;;;;;;27.35;4.88;;;6.90;99.90;;;;;;5070850;28;20123;-52
2024/01/23 05:53:27;;;;;;;25.52;4.18;;;6.80;99.90;;;;;;5070750;28;20060;-52
2024/01/23 05:55:53;;;;;;;24.60;3.92;;;6.90;99.90;;;;;;5070870;28;20040;-54
2024/01/23 05:58:19;;;;;;;25.95;3.90;;;6.90;99.90;;;;;;5068474;28;20046;-51
2024/01/23 06:00:45;;;;;;;35.30;5.30;;;7.00;99.90;;;;;;5070974;28;20094;-52
2024/01/23 06:03:10;;;;;;;25.35;4.18;;;6.90;99.90;;;;;;5070668;28;20040;-54
2024/01/23 06:05:36;;;;;;;29.25;4.22;;;6.90;99.90;;;;;;5069591;28;20502;-53
2024/01/23 06:08:03;;;;;;;26.35;3.95;;;7.00;99.90;;;;;;5070331;28;20043;-55
2024/01/23 06:10:28;;;;;;;34.10;4.95;;;7.00;99.90;;;;;;5067205;28;20501;-53
2024/01/23 06:12:54;;;;;;;31.50;4.57;;;6.90;99.90;;;;;;5070616;28;20130;-56
2024/01/23 06:15:20;;;;;;;31.00;4.32;;;7.10;99.90;;;;;;5070711;28;20127;-52
2024/01/23 06:17:46;;;;;;;27.27;4.90;;;6.90;99.90;;;;;;5069599;28;20156;-54
2024/01/23 06:20:15;;;;;;;25.98;4.03;;;6.90;99.90;;;;;;5068466;28;20063;-51
2024/01/23 06:22:40;;;;;;;28.55;5.03;;;6.10;99.90;;;;;;5069018;28;20047;-53
2024/01/23 06:25:08;;;;;;;30.35;4.10;;;6.90;99.90;;;;;;5070687;28;20044;-51
2024/01/23 06:27:35;;;;;;;18.88;3.88;;;7.00;99.90;;;;;;5069576;28;20043;-55
2024/01/23 06:30:01;;;;;;;32.42;4.75;;;7.40;99.90;;;;;;5063352;28;20033;-51
2024/01/23 06:32:27;;;;;;;28.23;4.72;;;6.90;99.90;;;;;;5061416;28;20028;-54
2024/01/23 06:34:53;;;;;;;26.83;4.05;;;6.90;99.90;;;;;;5062855;28;20055;-56
2024/01/23 06:37:20;;;;;;;24.77;4.10;;;6.90;99.90;;;;;;5063011;28;20044;-54
2024/01/23 06:39:46;;;;;;;23.70;4.53;;;6.90;99.90;;;;;;5062989;28;20448;-56
2024/01/23 06:42:12;;;;;;;35.80;4.93;;;6.90;99.90;;;;;;5065428;28;20082;-52
2024/01/23 06:44:39;;;;;;;27.48;4.35;;;6.90;99.90;;;;;;5065742;28;20072;-54
2024/01/23 06:47:05;;;;;;;23.88;4.10;;;6.90;99.90;;;;;;5066291;28;20451;-53
2024/01/23 06:49:31;;;;;;;27.88;5.55;;;6.80;99.90;;;;;;5064659;28;20044;-55
2024/01/23 06:51:56;;;;;;;30.08;4.43;;;7.20;99.90;;;;;;5063464;28;20036;-54
2024/01/23 06:54:22;;;;;;;23.98;4.78;;;6.70;99.90;;;;;;5063984;28;20135;-52
2024/01/23 06:56:48;;;;;;;27.50;4.32;;;6.70;99.90;;;;;;5064514;28;20036;-53
2024/01/23 06:59:15;;;;;;;30.83;4.30;;;6.70;99.90;;;;;;5065101;28;20123;-54
2024/01/23 07:01:41;;;;;;;35.13;5.28;;;6.60;99.90;;;;;;5064433;28;20039;-55
2024/01/23 07:04:07;;;;;;;29.67;3.83;;;6.60;99.90;;;;;;5062794;28;20036;-53
2024/01/23 07:06:33;;;;;;;33.58;4.45;;;6.50;99.90;;;;;;5063629;28;20475;-53
2024/01/23 07:08:59;;;;;;;31.65;5.10;;;6.60;99.90;;;;;;5063130;28;20534;-54
2024/01/23 07:11:25;;;;;;;34.75;4.90;;;6.40;99.90;;;;;;5063038;28;20133;-54
2024/01/23 07:13:51;;;;;;;28.17;4.50;;;6.70;99.90;;;;;;5064041;28;20066;-52
2024/01/23 07:16:17;;;;;;;31.85;4.82;;;6.40;99.90;;;;;;5064804;28;20032;-55
2024/01/23 07:18:43;;;;;;;34.08;4.03;;;6.50;99.90;;;;;;5060378;28;20044;-53
2024/01/23 07:21:09;;;;;;;32.42;4.47;;;6.40;99.90;;;;;;5059855;28;20115;-53
2024/01/23 07:23:36;;;;;;;27.77;4.15;;;6.30;99.90;;;;;;5061432;28;20102;-55
2024/01/23 07:26:02;;;;;;;31.13;4.35;;;6.30;99.90;;;;;;5059480;28;20037;-54
2024/01/23 07:28:28;;;;;;;30.80;4.35;;;6.30;99.90;;;;;;5062518;28;20032;-52
2024/01/23 07:30:54;;;;;;;25.77;3.53;;;6.30;99.90;;;;;;5063882;28;20096;-53
2024/01/23 07:33:20;;;;;;;49.28;5.55;;;6.20;99.90;;;;;;5065211;28;20043;-53
2024/01/23 07:35:46;;;;;;;28.63;3.92;;;6.10;99.90;;;;;;5067204;28;20373;-55
2024/01/23 07:38:11;;;;;;;29.10;4.85;;;6.00;99.90;;;;;;5067586;28;20415;-54
2024/01/23 07:40:38;;;;;;;23.65;4.10;;;6.00;99.90;;;;;;5067068;28;20507;-52
2024/01/23 07:43:04;;;;;;;22.90;3.92;;;5.90;99.90;;;;;;5070637;28;20112;-55
2024/01/23 07:45:29;;;;;;;24.92;4.15;;;5.90;99.90;;;;;;5067573;28;20150;-55
2024/01/23 07:47:56;;;;;;;29.10;4.43;;;6.00;99.90;;;;;;5068053;28;20403;-54
2024/01/23 07:50:21;;;;;;;27.95;4.40;;;6.00;99.90;;;;;;5066584;28;20492;-52
2024/01/23 07:52:47;;;;;;;27.83;4.32;;;5.90;99.90;;;;;;5068251;28;20040;-56
2024/01/23 07:55:13;;;;;;;24.40;4.55;;;5.80;99.90;;;;;;5069503;28;20103;-55
2024/01/23 07:57:39;;;;;;;31.38;4.35;;;5.80;99.90;;;;;;5066946;28;20510;-55
2024/01/23 08:00:05;;;;;;;25.42;4.15;;;5.80;99.90;;;;;;5065235;28;20128;-53
2024/01/23 08:02:32;;;;;;;27.88;4.15;;;5.70;99.90;;;;;;5068069;28;20037;-53
2024/01/23 08:04:58;;;;;;;32.88;5.88;;;5.80;99.90;;;;;;5068827;28;20131;-53
2024/01/23 08:07:24;;;;;;;36.40;5.75;;;5.70;99.90;;;;;;5068696;28;20033;-53
2024/01/23 08:09:49;;;;;;;37.20;5.03;;;5.60;99.90;;;;;;5066072;28;20039;-53
2024/01/23 08:12:15;;;;;;;23.00;3.85;;;5.70;99.90;;;;;;5068718;28;20490;-53
2024/01/23 08:14:41;;;;;;;32.28;5.10;;;5.70;99.90;;;;;;5065693;28;20041;-54
2024/01/23 08:17:07;;;;;;;34.35;4.57;;;5.80;99.90;;;;;;5065467;28;20052;-56
2024/01/23 08:19:33;;;;;;;33.47;4.55;;;5.90;99.90;;;;;;5066957;28;20067;-55
2024/01/23 08:21:58;;;;;;;22.52;3.85;;;5.80;99.90;;;;;;5068027;28;20087;-55
2024/01/23 08:24:24;;;;;;;27.60;4.70;;;5.80;99.90;;;;;;5069735;28;20048;-53
2024/01/23 08:26:52;;;;;;;35.55;4.72;;;5.80;99.90;;;;;;5067173;28;20036;-55
2024/01/23 08:29:19;;;;;;;37.92;5.97;;;5.80;99.90;;;;;;5068075;28;20033;-54
2024/01/23 08:31:45;;;;;;;25.30;4.18;;;5.90;99.90;;;;;;5068128;28;20098;-53
2024/01/23 08:34:11;;;;;;;27.67;4.80;;;5.90;99.90;;;;;;5067881;28;20041;-55
2024/01/23 08:36:36;;;;;;;34.22;5.30;;;5.80;99.90;;;;;;5065410;28;20660;-55
2024/01/23 08:39:03;;;;;;;33.05;5.03;;;5.90;99.90;;;;;;5066281;28;20056;-55
2024/01/23 08:41:29;;;;;;;30.27;4.13;;;5.90;99.90;;;;;;5067633;28;20403;-52
2024/01/23 08:43:55;;;;;;;31.75;5.03;;;6.00;99.90;;;;;;5065402;28;20136;-55
2024/01/23 08:46:21;;;;;;;30.30;5.03;;;6.00;99.90;;;;;;5066804;28;20029;-52
2024/01/23 08:48:47;;;;;;;29.45;4.63;;;5.90;99.90;;;;;;5064611;28;20025;-53
2024/01/23 08:51:13;;;;;;;24.10;4.95;;;6.00;99.90;;;;;;5064779;28;20135;-54
2024/01/23 08:53:39;;;;;;;25.25;4.70;;;6.00;99.90;;;;;;5063639;28;20028;-54
2024/01/23 08:56:04;;;;;;;29.42;4.20;;;6.00;99.90;;;;;;5063234;28;20383;-55
2024/01/23 08:58:30;;;;;;;28.67;3.85;;;6.00;99.90;;;;;;5060395;28;20670;-54
2024/01/23 09:00:56;;;;;;;29.20;4.30;;;6.10;99.90;;;;;;5060990;28;20040;-53
2024/01/23 09:03:21;;;;;;;28.25;4.20;;;6.00;99.90;;;;;;5060541;28;20052;-54
2024/01/23 09:05:48;;;;;;;34.95;4.13;;;6.20;99.90;;;;;;5062194;28;20048;-55
2024/01/23 09:08:13;;;;;;;27.75;4.45;;;6.10;99.90;;;;;;5061970;28;20128;-54
2024/01/23 09:10:39;;;;;;;27.77;4.72;;;6.30;99.90;;;;;;5060394;28;20095;-54
2024/01/23 09:13:05;;;;;;;36.33;4.63;;;6.30;99.90;;;;;;5060718;28;20422;-54
2024/01/23 09:15:31;;;;;;;37.30;5.13;;;6.40;99.90;;;;;;5061830;28;22569;-53
2024/01/23 09:17:57;;;;;;;28.88;4.38;;;6.30;99.90;;;;;;5061129;28;20153;-53
2024/01/23 09:20:24;;;;;;;35.35;4.22;;;6.30;99.90;;;;;;5061097;28;20072;-53
2024/01/23 09:22:50;;;;;;;34.83;4.47;;;6.40;99.90;;;;;;5060938;28;20063;-55
2024/01/23 09:25:17;;;;;;;33.33;5.53;;;6.40;99.90;;;;;;5061191;28;20048;-55
2024/01/23 09:27:43;;;;;;;33.72;4.70;;;6.50;99.90;;;;;;5060910;28;20040;-54
2024/01/23 09:30:10;;;;;;;29.63;5.18;;;6.60;99.90;;;;;;5060763;28;20047;-53
2024/01/23 09:32:35;;;;;;;24.48;4.60;;;6.70;99.90;;;;;;5061577;28;20032;-52
2024/01/23 09:35:01;;;;;;;30.35;4.95;;;6.70;99.90;;;;;;5062043;28;20046;-54
2024/01/23 09:37:27;;;;;;;33.97;5.55;;;6.80;99.90;;;;;;5061705;28;20032;-55
2024/01/23 09:39:54;;;;;;;34.55;5.53;;;6.90;99.90;;;;;;5060329;28;20622;-54
2024/01/23 09:42:23;;;;;;;28.63;5.00;;;6.90;99.90;;;;;;5058287;28;20400;-55
2024/01/23 09:44:54;;;;;;;31.70;4.82;;;7.00;99.90;;;;;;5058430;28;20045;-55
2024/01/23 09:47:23;;;;;;;32.42;5.00;;;7.00;99.90;;;;;;5060924;28;20039;-55
2024/01/23 09:49:51;;;;;;;27.42;4.07;;;7.20;99.90;;;;;;5061160;28;20529;-53
2024/01/23 09:52:18;;;;;;;30.42;4.80;;;7.30;99.90;;;;;;5060175;28;20052;-55
2024/01/23 09:54:45;;;;;;;33.30;5.53;;;7.20;99.90;;;;;;5058867;28;20727;-53
2024/01/23 09:57:12;;;;;;;31.55;5.22;;;7.30;99.90;;;;;;5058157;28;20439;-54
2024/01/23 09:59:38;;;;;;;31.25;5.60;;;7.40;99.90;;;;;;5060422;28;20039;-55
2024/01/23 10:02:07;;;;;;;33.78;5.40;;;7.50;99.90;;;;;;5054383;28;20044;-54
2024/01/23 10:04:33;;;;;;;30.50;6.10;;;7.50;99.90;;;;;;5056524;28;20041;-53
2024/01/23 10:07:07;;;;;;;28.58;4.55;;;7.50;99.90;;;;;;5058396;28;20032;-56
2024/01/23 10:09:33;;;;;;;;;;;7.60;99.90;;;;;;5059791;28;20129;-54
2024/01/23 10:11:59;;;;;;;28.83;4.53;;;7.60;99.90;;;;;;5060940;28;20379;-52
2024/01/23 10:14:25;;;;;;;44.30;6.97;;;7.60;99.90;;;;;;5060108;28;20041;-54
2024/01/23 10:16:50;;;;;;;29.52;4.60;;;7.60;99.90;;;;;;5061905;28;20067;-52
2024/01/23 10:19:16;;;;;;;38.17;5.25;;;7.70;99.90;;;;;;5061187;28;20048;-55
2024/01/23 10:21:42;;;;;;;28.85;4.43;;;7.60;99.90;;;;;;5061385;28;20059;-51
2024/01/23 10:24:08;;;;;;;30.48;5.53;;;7.80;99.90;;;;;;5059597;28;20101;-51
2024/01/23 10:26:34;;;;;;;25.23;4.85;;;7.80;99.90;;;;;;5063115;28;20035;-55
2024/01/23 10:29:02;;;;;;;32.58;5.75;;;7.90;99.90;;;;;;5064121;28;20029;-55
2024/01/23 10:31:28;;;;;;;28.27;5.07;;;8.10;99.90;;;;;;5062783;28;20035;-56
2024/01/23 10:33:53;;;;;;;29.77;5.00;;;8.30;99.90;;;;;;5061434;28;20037;-54
2024/01/23 10:36:20;;;;;;;26.85;4.70;;;8.50;99.90;;;;;;5062944;28;20499;-53
2024/01/23 10:38:50;;;;;;;27.27;4.65;;;8.60;99.90;;;;;;5063224;28;20044;-52
2024/01/23 10:41:18;;;;;;;30.45;5.18;;;8.70;99.90;;;;;;5063177;28;20037;-55
2024/01/23 10:43:46;;;;;;;29.05;5.63;;;8.60;99.90;;;;;;5063149;28;20155;-52
2024/01/23 10:46:12;;;;;;;41.08;6.63;;;8.60;99.90;;;;;;5062952;28;20119;-51
2024/01/23 10:48:38;;;;;;;32.33;5.93;;;8.70;99.90;;;;;;5062848;28;20098;-55
2024/01/23 10:51:20;;;;;;;36.70;5.25;;;8.80;99.90;;;;;;5063074;28;20063;-54
2024/01/23 10:54:01;;;;;;;30.48;4.97;;;9.00;99.90;;;;;;5062902;28;20048;-53
2024/01/23 10:56:38;;;;;;;25.98;5.45;;;9.00;99.90;;;;;;5062881;28;20074;-54
2024/01/23 10:59:12;;;;;;;32.65;5.63;;;9.10;99.90;;;;;;5062554;28;20040;-55
2024/01/23 11:01:38;;;;;;;;;;;9.20;99.90;;;;;;5063088;28;20107;-55
2024/01/23 11:04:05;;;;;;;36.47;4.72;;;9.20;99.90;;;;;;5062547;28;19920;-55
2024/01/23 11:06:39;;;;;;;30.73;6.00;;;9.10;99.90;;;;;;5067360;28;20033;-53
2024/01/23 11:09:15;;;;;;;31.45;4.30;;;9.00;99.90;;;;;;5066665;28;20028;-53
2024/01/23 11:11:52;;;;;;;33.45;5.57;;;8.90;99.90;;;;;;5066202;28;20116;-55
2024/01/23 11:14:29;;;;;;;35.97;4.97;;;8.80;99.90;;;;;;5064616;28;20391;-55
2024/01/23 11:17:08;;;;;;;33.22;5.45;;;8.90;99.90;;;;;;5067131;28;20441;-54
2024/01/23 11:19:39;;;;;;;30.65;4.72;;;9.10;99.90;;;;;;5064976;28;20498;-54
2024/01/23 11:22:05;;;;;;;32.47;6.07;;;9.00;99.90;;;;;;5065408;28;20024;-54
2024/01/23 11:24:45;;;;;;;26.58;4.53;;;8.90;99.90;;;;;;5065371;28;20109;-53
2024/01/23 11:27:22;;;;;;;24.00;4.70;;;8.80;99.90;;;;;;5064967;28;20499;-54
2024/01/23 11:29:49;;;;;;;32.10;5.57;;;8.60;99.90;;;;;;5065183;28;20032;-56
2024/01/23 11:32:28;;;;;;;33.45;5.50;;;8.70;99.90;;;;;;5067053;28;20037;-54
2024/01/23 11:35:02;;;;;;;40.03;6.05;;;8.70;99.90;;;;;;5066304;28;20708;-55
2024/01/23 11:37:39;;;;;;;27.17;4.53;;;8.70;99.90;;;;;;5064449;28;20044;-54
2024/01/23 11:40:06;;;;;;;34.22;4.88;;;8.90;99.90;;;;;;5064082;28;20040;-54
2024/01/23 11:42:39;;;;;;;35.53;5.55;;;9.20;99.90;;;;;;5065281;28;20036;-51
2024/01/23 11:45:32;;;;;;;30.23;4.47;;;9.40;99.90;;;;;;5064571;28;20516;-55
2024/01/23 11:48:03;;;;;;;28.67;5.18;;;9.40;99.90;;;;;;5062498;28;20059;-55
2024/01/23 11:50:33;;;;;;;26.92;5.10;;;9.40;99.90;;;;;;5064335;28;20045;-53
2024/01/23 11:53:00;;;;;;;28.13;5.57;;;9.30;99.90;;;;;;5065166;28;20104;-54
2024/01/23 11:55:27;;;;;;;29.20;5.43;;;9.30;99.90;;;;;;5049842;28;20040;-54
2024/01/23 11:57:57;;;;;;;34.88;5.18;;;9.40;99.90;;;;;;5048847;28;20032;-52
2024/01/23 12:00:23;;;;;;;33.30;5.32;;;9.50;99.90;;;;;;5060150;28;20464;-55
2024/01/23 12:02:50;;;;;;;26.15;5.30;;;9.40;99.90;;;;;;5061779;28;20499;-56
2024/01/23 12:05:16;;;;;;;35.08;5.82;;;9.30;99.90;;;;;;5061144;28;20035;-52
2024/01/23 12:07:43;;;;;;;29.42;5.93;;;9.20;99.90;;;;;;5059469;28;20057;-53
2024/01/23 12:10:15;;;;;;;27.80;4.63;;;9.10;99.90;;;;;;5060646;28;20365;-54
2024/01/23 12:12:41;;;;;;;30.58;5.78;;;9.20;99.90;;;;;;5060289;28;20025;-52
2024/01/23 12:15:08;;;;;;;31.17;5.70;;;9.30;99.90;;;;;;5060508;28;20479;-55
2024/01/23 12:17:35;;;;;;;28.90;5.43;;;9.40;99.90;;;;;;5058862;28;20076;-52
2024/01/23 12:20:09;;;;;;;33.05;5.65;;;9.70;99.90;;;;;;5061418;28;20132;-55
2024/01/23 12:22:39;;;;;;;28.92;4.93;;;9.60;99.90;;;;;;5059814;28;20048;-55
2024/01/23 12:25:08;;;;;;;29.10;5.30;;;9.80;99.90;;;;;;5061027;28;20404;-52
2024/01/23 12:27:34;;;;;;;27.35;5.30;;;9.90;99.90;;;;;;5060335;28;20032;-49
2024/01/23 12:30:00;;;;;;;27.30;5.55;;;9.90;99.90;;;;;;5062940;28;20040;-52
2024/01/23 12:32:30;;;;;;;28.30;5.22;;;9.90;99.90;;;;;;5059553;28;20032;-52
2024/01/23 12:34:56;;;;;;;28.88;5.00;;;9.70;99.90;;;;;;5061567;28;20044;-55
2024/01/23 12:37:29;;;;;;;28.65;5.28;;;9.50;99.90;;;;;;5058629;28;20032;-56
2024/01/23 12:39:55;;;;;;;30.58;4.88;;;9.30;99.90;;;;;;5076041;28;20082;-55
2024/01/23 12:42:24;;;;;;;27.65;4.78;;;9.10;99.90;;;;;;5060061;28;20579;-54
2024/01/23 12:44:50;;;;;;;30.27;5.28;;;9.00;99.90;;;;;;5062461;28;20035;-53
2024/01/23 12:47:15;;;;;;;26.67;4.88;;;9.00;99.90;;;;;;5060792;28;20392;-55